Time;durP1;ratioP1;P1;durP2;ratioP2;P2;SDS_P1;SDS_P2;PMS_P1;PMS_P2;Temp;Humidity;BMP_temperature;BMP_pressure;BME280_temperature;BME280_humidity;BME280_pressure;Samples;Min_cycle;Max_cycle;Signal;HPM_P1;HPM_P2
2022/05/11 00:00:13;;;;;;;;;7.25;7.25;;;;;21.07;43.14;101114.38;4996475;28;47700;-81
2022/05/11 00:02:38;;;;;;;;;7.25;7.25;;;;;21.17;43.17;101136.28;4989297;28;46033;-82
2022/05/11 00:05:06;;;;;;;;;7.00;7.00;;;;;21.08;43.30;101132.16;4984287;28;45372;-81
2022/05/11 00:07:31;;;;;;;;;7.00;7.00;;;;;20.99;43.22;101112.94;5004832;28;45420;-82
2022/05/11 00:09:57;;;;;;;;;7.00;6.25;;;;;21.03;43.68;101117.22;5005676;28;45418;-79
2022/05/11 00:12:22;;;;;;;;;6.00;6.00;;;;;21.02;43.57;101126.19;5010348;28;45241;-79
2022/05/11 00:14:48;;;;;;;;;8.50;6.75;;;;;21.04;43.23;101127.03;4999552;28;45239;-78
2022/05/11 00:17:13;;;;;;;;;7.50;6.00;;;;;20.93;43.63;101103.38;4981049;28;45622;-79
2022/05/11 00:19:39;;;;;;;;;6.75;6.00;;;;;20.96;43.75;101111.28;4980150;28;46954;-78
2022/05/11 00:22:04;;;;;;;;;8.00;7.00;;;;;20.92;43.21;101110.50;4999167;28;45332;-79
2022/05/11 00:24:30;;;;;;;;;8.75;8.75;;;;;20.97;43.41;101125.53;4998032;28;45690;-79
2022/05/11 00:26:55;;;;;;;;;8.00;8.00;;;;;20.96;43.94;101129.16;4999377;28;45587;-78
2022/05/11 00:29:21;;;;;;;;;7.00;7.00;;;;;20.84;43.83;101109.94;4981476;28;46219;-79
2022/05/11 00:31:47;;;;;;;;;9.50;7.00;;;;;20.72;43.77;101091.72;4981646;28;45229;-78
2022/05/11 00:34:13;;;;;;;;;8.25;7.25;;;;;20.81;43.92;101103.84;4981220;28;45388;-78
2022/05/11 00:36:38;;;;;;;;;7.00;7.00;;;;;20.79;43.96;101111.06;4981464;28;45943;-78
2022/05/11 00:39:03;;;;;;;;;10.25;8.50;;;;;20.78;44.16;101106.66;4998997;28;45466;-79
2022/05/11 00:41:29;;;;;;;;;10.25;7.75;;;;;20.72;43.95;101101.56;4998912;28;45312;-78
2022/05/11 00:43:57;;;;;;;;;7.50;7.25;;;;;20.59;44.18;101079.78;5014695;28;45240;-78
2022/05/11 00:46:37;;;;;;;;;7.00;6.75;;;;;20.58;44.01;101078.91;4984787;28;45819;-78
2022/05/11 00:52:18;;;;;;;;;5.00;5.00;;;;;20.69;44.35;101089.19;5004222;28;45410;-79
2022/05/11 00:55:18;;;;;;;;;5.00;5.00;;;;;20.66;44.21;101084.81;5009041;28;45473;-78
2022/05/11 00:57:53;;;;;;;;;6.50;5.25;;;;;20.65;44.36;101090.22;4986191;28;45397;-78
2022/05/11 01:00:21;;;;;;;;;4.25;4.25;;;;;20.56;44.29;101071.88;4984068;28;47270;-78
2022/05/11 01:02:52;;;;;;;;;4.00;4.00;;;;;20.48;44.20;101056.09;5002068;28;45177;-78
2022/05/11 01:05:17;;;;;;;;;3.33;3.33;;;;;20.49;44.27;101060.50;5001963;28;45262;-78
2022/05/11 01:07:43;;;;;;;;;7.25;6.00;;;;;20.52;44.52;101072.88;5002173;28;45329;-78
2022/05/11 01:10:09;;;;;;;;;5.00;4.50;;;;;20.46;44.66;101065.97;5001795;28;46075;-78
2022/05/11 01:12:45;;;;;;;;;5.25;5.25;;;;;20.42;44.39;101059.00;5002201;28;45349;-78
2022/05/11 01:15:14;;;;;;;;;4.75;4.75;;;;;20.41;44.45;101059.94;4984165;28;45270;-79
2022/05/11 01:17:40;;;;;;;;;5.75;5.00;;;;;20.40;44.29;101058.22;5001652;28;45390;-79
2022/05/11 01:20:09;;;;;;;;;6.00;6.00;;;;;20.39;44.55;101059.13;4983857;28;46256;-79
2022/05/11 01:23:07;;;;;;;;;4.25;4.25;;;;;20.31;44.77;101048.72;5001426;28;45499;-78
2022/05/11 01:25:33;;;;;;;;;5.00;4.50;;;;;20.31;45.29;101040.69;4980931;28;45471;-79
2022/05/11 01:28:11;;;;;;;;;4.75;3.75;;;;;20.31;44.91;101055.88;5001460;28;45309;-78
2022/05/11 01:30:45;;;;;;;;;6.00;5.00;;;;;20.13;45.02;101010.22;4984038;28;46200;-79
2022/05/11 01:33:17;;;;;;;;;4.50;4.50;;;;;20.18;44.83;101026.06;5001453;28;45380;-78
2022/05/11 01:35:46;;;;;;;;;5.50;5.50;;;;;20.28;45.25;101049.72;5001654;28;45210;-78
2022/05/11 01:38:18;;;;;;;;;7.75;7.25;;;;;20.32;45.17;101052.28;5001785;28;45419;-78
2022/05/11 01:40:43;;;;;;;;;5.75;4.75;;;;;20.12;45.15;101029.00;5001236;28;45952;-78
2022/05/11 01:43:14;;;;;;;;;5.50;5.50;;;;;20.24;45.15;101045.44;4983667;28;46052;-79
2022/05/11 01:45:40;;;;;;;;;4.25;4.25;;;;;20.20;45.53;101049.13;5001684;28;45326;-78
2022/05/11 01:48:05;;;;;;;;;5.25;4.25;;;;;20.07;45.64;101037.19;4991100;28;45535;-79
2022/05/11 01:50:31;;;;;;;;;5.25;5.25;;;;;20.03;45.76;101040.91;5001130;28;45455;-78
2022/05/11 01:52:56;;;;;;;;;6.75;5.25;;;;;19.95;46.03;101019.81;5001195;28;45151;-78
2022/05/11 01:55:21;;;;;;;;;6.25;4.00;;;;;19.98;45.78;101027.72;5001303;28;45222;-78
2022/05/11 01:57:47;;;;;;;;;6.25;5.25;;;;;19.87;45.99;101021.91;4994684;28;45346;-78
2022/05/11 02:00:12;;;;;;;;;4.75;4.75;;;;;20.06;45.73;101051.47;4978985;28;48555;-78
2022/05/11 02:02:38;;;;;;;;;5.75;5.50;;;;;19.92;45.65;101027.97;5000732;28;45597;-78
2022/05/11 02:07:49;;;;;;;;;7.25;6.00;;;;;19.89;46.05;101036.09;5001183;28;45411;-78
2022/05/11 02:10:15;;;;;;;;;5.25;5.25;;;;;19.92;46.17;101043.13;5000677;28;45501;-79
2022/05/11 02:12:41;;;;;;;;;9.00;7.00;;;;;19.74;45.99;101013.50;5001261;28;45406;-78
2022/05/11 02:15:08;;;;;;;;;5.50;4.75;;;;;19.71;46.04;101013.59;5001088;28;45317;-78
2022/05/11 02:17:34;;;;;;;;;6.00;6.00;;;;;19.79;46.50;101029.34;5000929;28;45238;-78
2022/05/11 02:19:59;;;;;;;;;5.00;5.00;;;;;19.70;46.46;101016.31;5000438;28;45253;-78
2022/05/11 02:22:24;;;;;;;;;4.50;4.50;;;;;19.75;46.17;101023.25;4983051;28;45296;-78
2022/05/11 02:24:50;;;;;;;;;9.00;7.50;;;;;19.65;46.67;101015.63;4983233;28;45433;-78
2022/05/11 02:27:15;;;;;;;;;5.25;5.00;;;;;19.73;46.95;101026.91;5001020;28;45154;-79
2022/05/11 02:29:41;;;;;;;;;5.75;5.75;;;;;19.66;46.86;101026.25;4982753;28;46536;-78
2022/05/11 02:32:07;;;;;;;;;6.50;6.50;;;;;19.59;46.59;101014.91;4983123;28;45244;-78
2022/05/11 02:37:16;;;;;;;;;7.75;6.75;;;;;19.49;46.79;101004.63;5000981;28;45293;-78
2022/05/11 02:39:41;;;;;;;;;6.25;5.75;;;;;19.59;46.88;101020.25;5000461;28;45743;-78
2022/05/11 02:42:07;;;;;;;;;6.75;6.00;;;;;19.60;47.06;101021.13;5000629;28;45460;-78
2022/05/11 02:44:32;;;;;;;;;11.25;10.75;;;;;19.58;47.20;101020.28;4999482;28;45388;-78
2022/05/11 02:46:58;;;;;;;;;10.00;9.00;;;;;19.53;47.32;101009.78;5000321;28;45272;-78
2022/05/11 02:49:23;;;;;;;;;10.00;10.00;;;;;19.42;47.55;100992.41;4999339;28;47494;-78
2022/05/11 02:51:49;;;;;;;;;8.00;8.00;;;;;19.38;48.08;100986.31;5000293;28;45384;-78
2022/05/11 02:54:14;;;;;;;;;11.25;11.25;;;;;19.57;47.90;101019.44;5000760;28;45328;-78
2022/05/11 02:56:41;;;;;;;;;8.00;8.00;;;;;19.55;48.08;101023.09;5000737;28;45382;-78
2022/05/11 02:59:06;;;;;;;;;6.00;6.00;;;;;19.52;48.26;101023.19;4970129;28;46190;-78
2022/05/11 03:01:32;;;;;;;;;12.00;10.25;;;;;19.41;48.16;101004.03;4982593;28;45629;-78
2022/05/11 03:03:58;;;;;;;;;10.00;10.00;;;;;19.46;48.39;101010.03;4982347;28;45439;-78
2022/05/11 03:06:23;;;;;;;;;8.75;8.00;;;;;19.46;48.81;101021.63;4999657;28;45526;-78
2022/05/11 03:08:49;;;;;;;;;11.50;9.50;;;;;19.44;48.81;101023.47;4986920;28;45253;-78
2022/05/11 03:11:14;;;;;;;;;13.50;13.00;;;;;19.31;49.30;101012.34;5000325;28;45251;-78
2022/05/11 03:13:40;;;;;;;;;11.25;11.25;;;;;19.37;49.06;101027.28;4999380;28;45287;-78
2022/05/11 03:16:06;;;;;;;;;9.50;9.50;;;;;19.21;49.23;101010.94;4982434;28;45286;-79
2022/05/11 03:18:31;;;;;;;;;12.25;11.25;;;;;19.23;49.37;101017.09;4969139;28;47077;-78
2022/05/11 03:20:58;;;;;;;;;11.25;10.25;;;;;19.23;49.54;101019.78;4999509;28;45392;-78
2022/05/11 03:23:25;;;;;;;;;10.75;7.75;;;;;19.17;49.69;101015.53;4982061;28;45535;-79
2022/05/11 03:25:51;;;;;;;;;10.00;10.00;;;;;19.03;50.03;101000.91;4982219;28;45537;-78
2022/05/11 03:28:17;;;;;;;;;8.50;8.50;;;;;18.95;49.77;100988.72;5000024;28;45659;-78
2022/05/11 03:30:43;;;;;;;;;10.00;9.00;;;;;19.00;49.96;101004.53;4999639;28;45319;-79
2022/05/11 03:35:52;;;;;;;;;9.25;8.25;;;;;18.85;49.90;100991.75;4999835;28;45399;-78
2022/05/11 03:38:18;;;;;;;;;9.50;8.50;;;;;19.00;50.24;101017.03;4999723;28;45356;-78
2022/05/11 03:40:44;;;;;;;;;9.00;9.00;;;;;18.98;50.12;101009.09;4999760;28;45234;-78
2022/05/11 03:43:09;;;;;;;;;11.50;11.00;;;;;18.92;50.07;101002.16;4999915;28;45317;-78
2022/05/11 03:45:35;;;;;;;;;13.50;11.25;;;;;18.94;50.04;101016.31;4999883;28;45456;-78
2022/05/11 03:48:01;;;;;;;;;10.00;8.00;;;;;18.87;50.21;101004.13;4999563;28;45373;-78
2022/05/11 03:50:27;;;;;;;;;9.25;9.00;;;;;18.72;50.34;100991.25;5002074;28;45218;-79
2022/05/11 03:52:54;;;;;;;;;10.25;9.50;;;;;18.73;50.54;100993.84;5008695;28;45430;-78
2022/05/11 03:55:22;;;;;;;;;12.50;11.00;;;;;18.75;50.41;101009.00;4999897;28;45506;-78
2022/05/11 03:57:48;;;;;;;;;11.50;11.50;;;;;18.72;50.58;101015.25;4999449;28;45275;-78
2022/05/11 04:00:21;;;;;;;;;14.00;12.25;;;;;18.50;50.64;100991.97;4981562;28;45305;-78
2022/05/11 04:02:47;;;;;;;;;11.00;10.25;;;;;18.49;50.83;101000.88;4999571;28;45459;-78
2022/05/11 04:08:32;;;;;;;;;15.00;12.75;;;;;18.44;51.07;101004.59;4974968;28;46256;-78
2022/05/11 04:10:57;;;;;;;;;13.00;12.00;;;;;18.50;50.98;101020.44;4999395;28;45274;-78
2022/05/11 04:13:23;;;;;;;;;10.25;10.25;;;;;18.42;51.25;101020.66;4999449;28;45459;-78
2022/05/11 04:15:50;;;;;;;;;10.75;9.75;;;;;18.29;51.00;100993.53;5010572;28;45462;-78
2022/05/11 04:18:16;;;;;;;;;13.50;13.25;;;;;18.43;51.45;101017.06;4984258;28;47726;-79
2022/05/11 04:20:41;;;;;;;;;11.75;11.25;;;;;18.41;51.42;101026.03;5002468;28;45413;-78
2022/05/11 04:23:07;;;;;;;;;10.50;10.00;;;;;18.38;51.67;101024.34;5002149;28;45575;-78
2022/05/11 04:25:32;;;;;;;;;12.50;11.50;;;;;18.33;51.64;101014.75;5002860;28;45473;-78
2022/05/11 04:27:58;;;;;;;;;10.00;8.75;;;;;18.24;51.63;101010.59;5002170;28;45646;-78
2022/05/11 04:30:26;;;;;;;;;9.75;9.75;;;;;18.27;51.81;101013.16;4984997;28;45543;-78
2022/05/11 04:32:53;;;;;;;;;13.25;10.00;;;;;18.29;51.74;101017.50;5002198;28;45293;-78
2022/05/11 04:35:18;;;;;;;;;12.00;9.75;;;;;18.25;51.72;101014.97;4984666;28;45451;-78
2022/05/11 04:37:44;;;;;;;;;12.75;12.50;;;;;18.32;51.62;101031.66;5002081;28;45553;-78
2022/05/11 04:40:11;;;;;;;;;10.75;9.50;;;;;18.22;51.95;101015.94;5002497;28;45418;-78
2022/05/11 04:42:38;;;;;;;;;12.00;11.25;;;;;18.17;52.02;101011.69;4984688;28;45365;-78
2022/05/11 04:45:04;;;;;;;;;12.25;12.00;;;;;18.26;51.91;101025.59;5002400;28;45238;-78
2022/05/11 04:47:29;;;;;;;;;10.00;10.00;;;;;18.23;51.83;101024.81;5001980;28;45324;-78
2022/05/11 04:49:56;;;;;;;;;11.00;10.50;;;;;18.26;52.33;101024.75;5002156;28;45227;-78
2022/05/11 04:52:21;;;;;;;;;14.00;11.25;;;;;18.24;51.90;101023.91;5002196;28;45301;-78
2022/05/11 04:54:48;;;;;;;;;11.50;9.75;;;;;18.11;52.20;100995.91;5002014;28;45451;-78
2022/05/11 04:57:15;;;;;;;;;13.00;13.00;;;;;18.25;52.32;101029.19;4965964;28;48201;-78
2022/05/11 04:59:40;;;;;;;;;12.00;12.00;;;;;18.22;52.06;101026.59;4993868;28;45488;-78
2022/05/11 05:02:12;;;;;;;;;12.25;12.25;;;;;18.17;51.79;101025.00;5002034;28;45255;-78
2022/05/11 05:04:38;;;;;;;;;14.75;14.75;;;;;18.01;52.00;101001.50;5002233;28;45517;-78
2022/05/11 05:07:03;;;;;;;;;13.00;10.75;;;;;18.02;52.61;100997.06;5001702;28;46490;-77
2022/05/11 05:09:29;;;;;;;;;12.25;11.50;;;;;18.14;52.37;101020.66;4984551;28;45392;-77
2022/05/11 05:11:55;;;;;;;;;11.75;11.75;;;;;18.15;52.53;101018.84;5002379;28;45447;-77
2022/05/11 05:14:21;;;;;;;;;12.25;10.50;;;;;18.10;52.39;101013.69;4984339;28;45477;-77
2022/05/11 05:16:48;;;;;;;;;11.25;11.00;;;;;18.10;52.27;101011.00;5001210;28;45912;-78
2022/05/11 05:19:14;;;;;;;;;10.75;10.50;;;;;18.07;52.93;101011.97;5001641;28;45177;-79
2022/05/11 05:21:39;;;;;;;;;14.00;14.00;;;;;18.11;52.72;101015.41;4983309;28;45366;-80
2022/05/11 05:24:05;;;;;;;;;11.75;11.25;;;;;18.16;52.49;101024.16;5001787;28;45152;-81
2022/05/11 05:26:30;;;;;;;;;15.25;14.00;;;;;17.94;52.52;100999.94;5001494;28;46233;-79
2022/05/11 05:31:40;;;;;;;;;11.50;10.75;;;;;17.97;53.09;101006.97;4990526;28;45242;-79
2022/05/11 05:34:06;;;;;;;;;10.25;9.75;;;;;18.10;53.39;101028.81;4995530;28;45304;-80
2022/05/11 05:36:36;;;;;;;;;14.50;13.75;;;;;17.95;53.14;101011.47;5000321;28;47096;-80
2022/05/11 05:39:03;;;;;;;;;11.25;11.25;;;;;18.02;53.42;101024.56;5001391;28;45337;-80
2022/05/11 05:41:29;;;;;;;;;10.50;9.25;;;;;17.91;53.32;101002.72;4983809;28;45219;-80
2022/05/11 05:43:55;;;;;;;;;11.25;8.25;;;;;17.94;53.52;101010.59;5001418;28;45489;-80
2022/05/11 05:46:22;;;;;;;;;10.00;10.00;;;;;18.06;53.71;101028.00;4983623;28;47969;-79
2022/05/11 05:48:47;;;;;;;;;11.50;9.50;;;;;18.02;53.72;101018.38;4999335;28;45286;-79
2022/05/11 05:51:15;;;;;;;;;10.75;10.75;;;;;18.09;53.81;101033.22;4983455;28;45337;-78
2022/05/11 05:53:45;;;;;;;;;12.50;10.75;;;;;17.98;54.10;101006.06;5000821;28;45544;-78
2022/05/11 05:56:12;;;;;;;;;12.75;11.25;;;;;18.17;53.69;101033.00;4983108;28;46616;-79
2022/05/11 05:58:38;;;;;;;;;11.00;11.00;;;;;18.16;53.95;101023.28;4988419;28;45413;-79
2022/05/11 06:01:04;;;;;;;;;14.25;13.00;;;;;18.06;53.41;101004.88;4999628;28;45485;-78
2022/05/11 06:03:34;;;;;;;;;14.00;11.25;;;;;18.12;53.37;101014.47;5000627;28;45621;-80
2022/05/11 06:06:00;;;;;;;;;15.50;11.75;;;;;18.21;53.57;101026.69;5001022;28;45358;-80
2022/05/11 06:08:25;;;;;;;;;11.25;10.50;;;;;18.30;53.64;101040.56;5000838;28;45234;-79
2022/05/11 06:10:54;;;;;;;;;10.25;10.25;;;;;18.31;53.55;101046.81;5010403;28;45310;-80
2022/05/11 06:13:22;;;;;;;;;10.50;9.50;;;;;18.20;53.41;101019.56;5003952;28;45464;-80
2022/05/11 06:15:51;;;;;;;;;12.00;11.75;;;;;18.34;53.69;101044.03;4989829;28;48038;-80
2022/05/11 06:18:17;;;;;;;;;14.50;13.00;;;;;18.34;53.60;101032.50;5004397;28;45281;-80
2022/05/11 06:20:42;;;;;;;;;13.25;11.75;;;;;18.32;53.39;101026.34;4992056;28;45465;-80
2022/05/11 06:23:08;;;;;;;;;13.00;13.00;;;;;18.40;53.46;101032.31;5000237;28;45446;-80
2022/05/11 06:25:37;;;;;;;;;14.00;12.75;;;;;18.37;53.41;101025.28;5000744;28;45429;-80
2022/05/11 06:28:03;;;;;;;;;14.00;12.25;;;;;18.28;53.63;100999.78;5000535;28;45487;-80
2022/05/11 06:30:33;;;;;;;;;15.00;15.00;;;;;18.42;53.42;101025.13;5000699;28;45301;-80
2022/05/11 06:33:00;;;;;;;;;14.50;13.75;;;;;18.48;53.46;101035.59;4999949;28;45407;-80
2022/05/11 06:35:27;;;;;;;;;13.75;13.25;;;;;18.38;53.44;101005.69;4982538;28;48337;-80
2022/05/11 06:37:54;;;;;;;;;15.25;14.25;;;;;18.47;53.25;101026.72;5000140;28;45395;-79
2022/05/11 06:40:20;;;;;;;;;14.25;14.25;;;;;18.47;53.22;101018.72;4981825;28;45198;-79
2022/05/11 06:42:48;;;;;;;;;13.25;13.25;;;;;18.49;53.38;101018.66;5000139;28;45195;-80
2022/05/11 06:45:14;;;;;;;;;14.00;14.00;;;;;18.59;53.44;101024.59;5000121;28;46381;-80
2022/05/11 06:47:40;;;;;;;;;10.75;10.50;;;;;18.54;53.28;101013.19;5000195;28;45506;-79
2022/05/11 06:50:06;;;;;;;;;14.25;14.25;;;;;18.71;53.19;101038.41;5000190;28;45264;-80
2022/05/11 06:52:31;;;;;;;;;19.25;14.50;;;;;18.73;52.87;101030.31;5000181;28;45547;-80
2022/05/11 07:00:33;;;;;;;;;15.50;14.25;;;;;18.90;52.86;101033.34;4996302;28;45495;-80
2022/05/11 07:02:59;;;;;;;;;13.50;12.00;;;;;18.91;52.82;101035.09;4981691;28;45428;-80
2022/05/11 07:05:25;;;;;;;;;14.00;12.75;;;;;18.83;52.20;101013.13;4981492;28;47269;-80
2022/05/11 07:07:52;;;;;;;;;13.00;13.00;;;;;19.03;52.18;101032.91;4982277;28;45682;-81
2022/05/11 07:10:18;;;;;;;;;13.00;13.00;;;;;18.99;52.04;101021.50;5000028;28;45537;-80
2022/05/11 07:12:46;;;;;;;;;13.00;13.00;;;;;18.92;51.88;101001.28;4990725;28;45504;-80
2022/05/11 07:15:13;;;;;;;;;13.25;11.25;;;;;19.17;51.80;101038.69;4963298;28;47279;-80
2022/05/11 07:17:40;;;;;;;;;14.50;12.75;;;;;19.24;51.27;101031.31;4978728;28;45556;-79
2022/05/11 07:20:19;;;;;;;;;13.50;12.75;;;;;19.23;51.72;101016.22;4978788;28;45440;-79
2022/05/11 07:22:44;;;;;;;;;12.75;12.50;;;;;19.30;51.42;101015.97;4994315;28;45377;-81
2022/05/11 07:25:16;;;;;;;;;16.50;15.25;;;;;19.35;51.11;101008.66;4999260;28;45365;-78
2022/05/11 07:27:43;;;;;;;;;12.00;10.75;;;;;19.54;51.02;101021.31;5000020;28;45424;-79
2022/05/11 07:30:13;;;;;;;;;16.00;13.50;;;;;19.59;50.58;101014.00;4999840;28;45269;-78
2022/05/11 07:32:38;;;;;;;;;14.00;10.00;;;;;19.59;50.47;101008.69;4999104;28;45531;-78
2022/05/11 07:35:04;;;;;;;;;13.00;13.00;;;;;19.71;50.21;101024.28;4999329;28;45398;-78
2022/05/11 07:37:30;;;;;;;;;10.00;10.00;;;;;19.74;49.83;101012.63;4981663;28;46078;-79
2022/05/11 07:39:56;;;;;;;;;8.75;8.75;;;;;19.84;50.26;101016.69;4999596;28;45651;-79
2022/05/11 07:42:22;;;;;;;;;10.25;10.25;;;;;19.78;49.29;101003.53;4999542;28;45541;-80
2022/05/11 07:44:48;;;;;;;;;12.00;11.25;;;;;19.91;49.65;101009.31;4999244;28;45223;-80
2022/05/11 07:47:13;;;;;;;;;12.50;12.50;;;;;20.10;49.54;101025.50;5011882;28;45335;-78
2022/05/11 07:49:39;;;;;;;;;13.75;11.50;;;;;20.12;49.00;101018.28;4981763;28;45227;-78
2022/05/11 07:52:06;;;;;;;;;10.00;10.00;;;;;20.10;48.88;101012.13;5000041;28;45290;-79
2022/05/11 07:54:32;;;;;;;;;8.25;8.25;;;;;20.01;48.84;101003.53;4984543;28;47447;-77
2022/05/11 07:59:59;;;;;;;;;9.00;9.00;;;;;20.17;48.42;101022.53;5002966;28;45357;-78
2022/05/11 08:02:30;;;;;;;;;12.00;12.00;;;;;20.25;48.48;101024.91;4990189;28;45227;-78
2022/05/11 08:05:02;;;;;;;;;11.00;10.50;;;;;20.27;48.28;101015.03;5002492;28;46652;-78
2022/05/11 08:07:35;;;;;;;;;10.50;10.25;;;;;20.39;48.55;101017.19;5002582;28;45182;-78
2022/05/11 08:10:00;;;;;;;;;10.25;9.50;;;;;20.43;48.23;101012.63;5002350;28;45305;-78
2022/05/11 08:12:27;;;;;;;;;9.50;9.50;;;;;20.58;47.71;101020.06;5012164;28;45300;-78
2022/05/11 08:14:53;;;;;;;;;10.25;8.00;;;;;20.59;47.83;101000.38;5002497;28;46474;-78
2022/05/11 08:17:28;;;;;;;;;5.75;5.75;;;;;20.64;47.60;100993.03;4964958;28;45400;-78
2022/05/11 08:19:53;;;;;;;;;7.00;7.00;;;;;20.79;46.92;100998.69;5000185;28;45477;-78
2022/05/11 08:22:19;;;;;;;;;7.25;7.00;;;;;20.87;46.79;100991.19;4984338;28;45437;-77
2022/05/11 08:24:45;;;;;;;;;7.25;6.75;;;;;20.94;46.83;100998.03;5002196;28;45500;-76
2022/05/11 08:27:11;;;;;;;;;6.75;6.75;;;;;21.14;45.89;101006.09;5002268;28;45328;-77
2022/05/11 08:35:05;;;;;;;;;5.75;5.75;;;;;21.24;44.99;100993.13;5001956;28;45687;-77
2022/05/11 08:37:31;;;;;;;;;6.00;4.25;;;;;21.42;44.47;101006.69;4984370;28;46154;-77
2022/05/11 08:39:56;;;;;;;;;8.50;6.50;;;;;21.41;44.46;101000.47;5002190;28;45285;-78
2022/05/11 08:42:26;;;;;;;;;5.25;5.00;;;;;21.46;43.66;100995.75;4984539;28;45859;-77
2022/05/11 08:44:51;;;;;;;;;4.00;4.00;;;;;21.51;43.46;100998.25;5002103;28;45317;-77
2022/05/11 08:47:41;;;;;;;;;5.00;5.00;;;;;21.72;42.67;101017.84;5001619;28;45273;-77
2022/05/11 08:50:14;;;;;;;;;6.67;5.00;;;;;21.78;42.34;101025.59;4984042;28;45381;-78
2022/05/11 08:52:52;;;;;;;;;3.33;3.00;;;;;21.83;41.95;101020.03;4984017;28;45463;-78
2022/05/11 08:55:30;;;;;;;;;4.25;3.75;;;;;21.83;42.05;101015.53;5001894;28;45573;-77
2022/05/11 08:57:57;;;;;;;;;5.00;5.00;;;;;21.87;41.74;101000.19;4992555;28;45463;-78
2022/05/11 09:00:23;;;;;;;;;4.00;3.75;;;;;21.89;41.46;100998.28;4999183;28;45594;-78
2022/05/11 09:03:35;;;;;;;;;4.00;4.00;;;;;22.02;41.26;101007.50;5001571;28;45426;-78
2022/05/11 09:06:04;;;;;;;;;3.00;2.50;;;;;22.11;41.30;101016.94;4974643;28;47292;-78
2022/05/11 09:08:35;;;;;;;;;4.50;4.50;;;;;22.07;40.99;101000.09;5001395;28;45425;-81
2022/05/11 09:11:00;;;;;;;;;3.00;3.00;;;;;22.20;41.17;101009.34;5001613;28;45313;-83
2022/05/11 09:13:27;;;;;;;;;4.00;4.00;;;;;22.18;41.13;100994.22;5001637;28;45301;-81
2022/05/11 09:15:53;;;;;;;;;4.33;4.33;;;;;22.38;40.73;101009.41;4983946;28;48433;-79
2022/05/11 09:18:20;;;;;;;;;3.00;3.00;;;;;22.41;40.70;101002.06;5001082;28;45475;-79
2022/05/11 09:20:52;;;;;;;;;4.00;4.00;;;;;22.52;40.98;101008.72;5001785;28;45403;-80
2022/05/11 09:24:10;;;;;;;;;7.00;5.75;;;;;22.57;41.49;101001.31;4983365;28;45703;-80
2022/05/11 09:26:39;;;;;;;;;5.75;5.75;;;;;22.51;41.25;100997.13;4933550;28;46494;-80
2022/05/11 09:29:22;;;;;;;;;6.67;5.67;;;;;22.65;40.96;101007.16;4981897;28;46012;-80
2022/05/11 09:31:51;;;;;;;;;4.00;4.00;;;;;22.66;40.67;101006.22;4991095;28;45398;-80
2022/05/11 09:34:33;;;;;;;;;2.00;2.00;;;;;22.73;40.20;100998.72;4997140;28;45479;-80
2022/05/11 09:37:14;;;;;;;;;3.67;3.67;;;;;22.73;40.20;100993.38;4999124;28;46001;-80
2022/05/11 09:39:52;;;;;;;;;4.00;4.00;;;;;22.82;40.18;100998.25;4990754;28;45383;-81
2022/05/11 09:42:26;;;;;;;;;5.25;5.25;;;;;22.91;39.61;101011.22;5003794;28;45462;-81
2022/05/11 09:44:53;;;;;;;;;5.00;5.00;;;;;22.79;39.47;100969.75;4980930;28;45578;-80
2022/05/11 09:47:29;;;;;;;;;6.50;4.75;;;;;22.92;39.73;100982.56;4998483;28;46528;-81
2022/05/11 09:50:13;;;;;;;;;6.67;4.33;;;;;22.95;39.85;100975.19;4990840;28;45353;-80
2022/05/11 09:52:38;;;;;;;;;4.67;4.00;;;;;23.09;39.87;100999.56;4965577;28;45458;-78
2022/05/11 09:55:16;;;;;;;;;5.00;4.00;;;;;23.15;39.50;100993.00;4987695;28;45440;-77
2022/05/11 09:57:52;;;;;;;;;5.33;5.33;;;;;23.21;39.66;100984.63;4981570;28;46927;-79
2022/05/11 10:00:21;;;;;;;;;5.33;4.33;;;;;23.25;39.65;100988.00;4990144;28;45451;-78
2022/05/11 10:02:53;;;;;;;;;4.67;4.00;;;;;23.20;39.52;100977.53;4999630;28;45626;-77
2022/05/11 10:05:26;;;;;;;;;2.00;2.00;;;;;23.31;39.53;100993.06;5000523;28;45519;-78
2022/05/11 10:08:05;;;;;;;;;4.00;3.33;;;;;23.33;39.25;100981.31;5007682;28;46673;-78
2022/05/11 10:10:37;;;;;;;;;3.33;3.33;;;;;23.38;39.29;100996.28;4995148;28;45451;-77
2022/05/11 10:13:30;;;;;;;;;5.67;4.33;;;;;23.41;38.86;101002.34;5014486;28;45270;-77
2022/05/11 10:22:15;;;;;;;;;2.67;2.67;;;;;23.45;39.40;100981.59;4998155;28;45506;-88
2022/05/11 10:25:10;;;;;;;;;4.00;3.50;;;;;23.53;39.27;100998.16;4981065;28;45244;-80
2022/05/11 10:27:55;;;;;;;;;4.00;3.00;;;;;23.53;39.31;100999.03;4983690;28;45463;-78
2022/05/11 10:30:24;;;;;;;;;4.67;3.00;;;;;23.39;39.18;100961.28;5000152;28;45405;-79
2022/05/11 10:33:19;;;;;;;;;2.33;2.33;;;;;23.59;39.09;100986.22;4980594;28;45701;-80
2022/05/11 10:36:10;;;;;;;;;3.00;3.00;;;;;23.63;38.90;100985.06;4999293;28;45510;-80
2022/05/11 10:38:44;;;;;;;;;3.00;3.00;;;;;23.70;39.05;100990.03;4998741;28;45494;-77
2022/05/11 10:41:21;;;;;;;;;5.00;5.00;;;;;23.62;39.16;100969.91;4996283;28;46739;-78
2022/05/11 10:44:07;;;;;;;;;5.67;5.67;;;;;23.83;38.89;100978.66;4967947;28;45962;-81
2022/05/11 10:46:51;;;;;;;;;4.33;4.33;;;;;23.96;38.93;100979.72;5003898;28;45321;-79
2022/05/11 10:49:54;;;;;;;;;2.33;2.33;;;;;24.06;38.52;100982.72;4994431;28;45419;-82
2022/05/11 10:52:48;;;;;;;;;2.67;2.00;;;;;24.13;38.88;100974.25;4980632;28;47062;-81
2022/05/11 10:55:30;;;;;;;;;3.00;3.00;;;;;24.18;38.11;100965.91;4989697;28;46270;-82
2022/05/11 10:58:01;;;;;;;;;4.00;2.00;;;;;24.20;38.54;100964.00;4981252;28;45471;-80
2022/05/11 11:00:32;;;;;;;;;3.25;3.25;;;;;24.32;38.04;100965.13;4999089;28;45373;-80
2022/05/11 11:03:16;;;;;;;;;2.00;2.00;;;;;24.42;38.43;100952.88;4980650;28;46976;-81
2022/05/11 11:07:11;;;;;;;;;2.33;2.33;;;;;24.54;38.04;100954.88;4986304;28;45428;-81
2022/05/11 11:08:55;;;;;;;;;5.50;5.00;;;;;24.65;37.99;100968.56;4998523;28;45234;-81
2022/05/11 11:11:31;;;;;;;;;3.75;3.75;;;;;24.68;38.28;100946.00;4980901;28;45641;-81
2022/05/11 11:14:00;;;;;;;;;4.50;4.50;;;;;24.73;37.98;100948.41;4981111;28;47421;-81
2022/05/11 11:16:38;;;;;;;;;4.33;4.33;;;;;24.89;38.63;100959.13;4980437;28;45388;-84
2022/05/11 11:19:08;;;;;;;;;5.00;4.67;;;;;24.81;38.13;100938.91;4980250;28;45805;-80
2022/05/11 11:21:39;;;;;;;;;3.00;3.00;;;;;24.89;38.43;100942.97;4997101;28;45689;-80
2022/05/11 11:24:23;;;;;;;;;4.00;4.00;;;;;24.92;38.33;100934.69;4997258;28;45832;-80
2022/05/11 11:26:53;;;;;;;;;3.00;3.00;;;;;25.09;37.97;100945.31;4991583;28;45380;-80
2022/05/11 11:29:30;;;;;;;;;4.33;4.00;;;;;25.18;38.49;100941.19;4998571;28;45224;-80
2022/05/11 11:31:58;;;;;;;;;4.67;3.00;;;;;25.24;38.20;100944.41;4980931;28;45507;-79
2022/05/11 11:34:41;;;;;;;;;2.67;2.33;;;;;25.30;37.71;100946.69;4996677;28;46360;-80
2022/05/11 11:37:25;;;;;;;;;2.00;2.00;;;;;25.40;37.84;100938.91;4981024;28;45512;-80
2022/05/11 11:39:54;;;;;;;;;3.00;2.00;;;;;25.35;37.77;100937.47;4997068;28;45308;-81
2022/05/11 11:42:34;;;;;;;;;4.33;4.33;;;;;25.56;37.42;100941.50;4980381;28;45567;-80
2022/05/11 11:45:00;;;;;;;;;4.67;2.00;;;;;25.60;37.42;100932.25;4998276;28;46331;-80
2022/05/11 11:47:26;;;;;;;;;4.00;2.33;;;;;25.70;36.86;100933.41;4998207;28;45419;-80
2022/05/11 11:49:57;;;;;;;;;4.33;3.33;;;;;25.73;36.93;100933.19;4998369;28;45612;-80
2022/05/11 11:52:38;;;;;;;;;3.00;3.00;;;;;25.85;36.69;100955.88;4980011;28;45437;-81
2022/05/11 11:55:27;;;;;;;;;3.00;3.00;;;;;25.88;36.28;100927.84;4975416;28;48053;-80
2022/05/11 11:57:56;;;;;;;;;3.33;3.00;;;;;25.99;36.12;100951.41;4997391;28;45604;-80
2022/05/11 12:00:46;;;;;;;;;2.00;2.00;;;;;26.07;35.68;100949.94;4994593;28;45439;-80
2022/05/11 12:03:18;;;;;;;;;3.33;2.67;;;;;26.07;35.98;100935.59;4997897;28;45693;-79
2022/05/11 12:05:48;;;;;;;;;2.00;2.00;;;;;26.15;35.74;100933.25;4996681;28;47248;-81
2022/05/11 12:17:05;;;;;;;;;2.00;2.00;;;;;26.56;34.85;100929.63;4989349;28;45356;-78